Time;durP1;ratioP1;P1;durP2;ratioP2;P2;SDS_P1;SDS_P2;PMS_P1;PMS_P2;Temp;Humidity;BMP_temperature;BMP_pressure;BME280_temperature;BME280_humidity;BME280_pressure;Samples;Min_cycle;Max_cycle;Signal;HPM_P1;HPM_P2
2022/09/01 00:00:50;;;;;;;9.80;4.15;;;;;;;14.65;100.00;96983.97;4972096;28;20045;-74
2022/09/01 00:03:23;;;;;;;8.48;4.03;;;;;;;14.64;100.00;96964.31;4971414;28;20046;-74
2022/09/01 00:05:53;;;;;;;13.32;4.10;;;;;;;14.64;100.00;96977.75;4975710;28;20046;-74
2022/09/01 00:08:20;;;;;;;11.83;4.33;;;;;;;14.63;100.00;96967.22;4970580;28;20043;-74
2022/09/01 00:10:46;;;;;;;7.25;4.10;;;;;;;14.58;100.00;96973.41;4975484;28;20637;-74
2022/09/01 00:13:12;;;;;;;11.00;4.03;;;;;;;14.62;100.00;96968.31;4976181;28;20050;-74
2022/09/01 00:15:38;;;;;;;8.60;3.97;;;;;;;14.60;100.00;96984.72;4976745;28;20321;-74
2022/09/01 00:18:03;;;;;;;7.78;4.30;;;;;;;14.57;100.00;96976.38;4974860;28;20089;-75
2022/09/01 00:20:29;;;;;;;12.18;4.22;;;;;;;14.55;100.00;96982.00;4975971;28;20030;-74
2022/09/01 00:22:55;;;;;;;11.93;3.78;;;;;;;14.55;100.00;96976.63;4976162;28;20034;-75
2022/09/01 00:25:22;;;;;;;7.72;4.40;;;;;;;14.44;100.00;96986.50;4976302;28;20044;-75
2022/09/01 00:27:48;;;;;;;13.13;4.20;;;;;;;14.42;100.00;96979.75;4975575;28;20513;-74
2022/09/01 00:30:20;;;;;;;10.10;4.10;;;;;;;14.43;100.00;96979.50;4974763;28;20046;-75
2022/09/01 00:32:46;;;;;;;9.00;3.80;;;;;;;14.33;100.00;96984.81;4990924;28;20046;-75
2022/09/01 00:35:14;;;;;;;10.07;4.05;;;;;;;14.35;100.00;96984.56;4976083;28;20132;-75
2022/09/01 00:37:39;;;;;;;8.25;4.00;;;;;;;14.35;100.00;96985.38;4990868;28;20049;-74
2022/09/01 00:40:06;;;;;;;18.40;4.05;;;;;;;14.36;100.00;96978.91;4990763;28;20397;-75
2022/09/01 00:42:31;;;;;;;9.45;4.18;;;;;;;14.33;100.00;96979.44;4974134;28;20043;-74
2022/09/01 00:44:57;;;;;;;9.15;3.97;;;;;;;14.34;100.00;96977.56;4976465;28;20041;-74
2022/09/01 00:47:22;;;;;;;11.20;4.18;;;;;;;14.30;100.00;96979.13;4974966;28;20046;-75
2022/09/01 00:49:49;;;;;;;8.15;3.97;;;;;;;14.28;100.00;96986.66;4974377;28;20057;-75
2022/09/01 00:52:26;;;;;;;9.98;3.85;;;;;;;14.18;100.00;96985.53;4973527;28;20096;-74
2022/09/01 00:54:56;;;;;;;6.53;3.92;;;;;;;14.16;100.00;96976.91;4975128;28;20388;-74
2022/09/01 00:57:23;;;;;;;5.72;3.50;;;;;;;14.15;100.00;96980.63;4990059;28;20057;-75
2022/09/01 00:59:58;;;;;;;8.35;3.80;;;;;;;14.18;100.00;96964.00;4977198;28;20038;-74
2022/09/01 01:02:24;;;;;;;9.32;3.10;;;;;;;14.10;100.00;96969.84;4970708;28;20039;-75
2022/09/01 01:04:51;;;;;;;11.13;3.65;;;;;;;14.15;100.00;96967.19;4973462;28;20031;-74
2022/09/01 01:07:21;;;;;;;10.50;4.03;;;;;;;14.10;100.00;96969.84;4969545;28;20057;-74
2022/09/01 01:09:49;;;;;;;5.28;3.17;;;;;;;14.06;100.00;96968.75;4970172;28;20148;-74
2022/09/01 01:12:16;;;;;;;7.20;3.72;;;;;;;14.02;100.00;96959.56;4955897;28;20278;-74
2022/09/01 01:14:48;;;;;;;22.63;3.92;;;;;;;14.01;100.00;96957.13;4956379;28;20232;-74
2022/09/01 01:17:17;;;;;;;7.07;3.60;;;;;;;14.02;100.00;96956.88;4955743;28;20509;-75
2022/09/01 01:23:04;;;;;;;8.13;4.10;;;;;;;13.91;100.00;96955.16;4955455;28;20698;-75
2022/09/01 01:25:43;;;;;;;9.20;3.33;;;;;;;13.94;100.00;96951.97;4954229;28;20734;-74
2022/09/01 01:28:20;;;;;;;7.18;3.55;;;;;;;13.89;100.00;96955.44;4970325;28;20047;-74
2022/09/01 01:31:04;;;;;;;7.43;3.53;;;;;;;13.85;100.00;96950.81;4957274;28;20134;-74
2022/09/01 01:33:40;;;;;;;7.10;3.85;;;;;;;13.84;100.00;96955.38;4973297;28;20064;-75
2022/09/01 01:36:25;;;;;;;6.35;3.75;;;;;;;13.81;100.00;96960.47;4974104;28;20054;-74
2022/09/01 01:38:52;;;;;;;9.35;4.07;;;;;;;13.79;100.00;96946.47;4989358;28;20041;-74
2022/09/01 01:41:19;;;;;;;6.80;3.75;;;;;;;13.73;100.00;96963.63;4974162;28;20038;-74
2022/09/01 01:43:47;;;;;;;8.32;4.20;;;;;;;13.70;100.00;96954.22;4972480;28;20137;-74
2022/09/01 01:46:13;;;;;;;8.95;3.30;;;;;;;13.65;100.00;96962.22;4972248;28;20062;-74
2022/09/01 01:48:41;;;;;;;7.03;3.60;;;;;;;13.68;100.00;96960.91;4973267;28;20251;-75
2022/09/01 01:51:09;;;;;;;7.53;3.58;;;;;;;13.68;100.00;96966.28;4972685;28;20125;-74
2022/09/01 01:53:35;;;;;;;7.65;3.72;;;;;;;13.69;100.00;96959.81;4972460;28;20282;-74
2022/09/01 01:56:01;;;;;;;7.13;3.85;;;;;;;13.60;100.00;96968.34;4974867;28;20030;-75
2022/09/01 01:58:33;;;;;;;8.93;3.72;;;;;;;13.57;100.00;96970.75;4973089;28;20100;-74
2022/09/01 02:01:02;;;;;;;6.38;3.47;;;;;;;13.53;100.00;96959.69;4990708;28;20042;-74
2022/09/01 02:03:37;;;;;;;11.38;3.90;;;;;;;13.52;100.00;96968.81;4988845;28;20428;-74
2022/09/01 02:06:08;;;;;;;14.35;4.32;;;;;;;13.51;100.00;96966.41;4973164;28;20046;-74
2022/09/01 02:08:36;;;;;;;5.72;3.17;;;;;;;13.48;100.00;96967.72;4972758;28;20133;-73
2022/09/01 02:11:04;;;;;;;9.73;3.60;;;;;;;13.38;100.00;96957.69;4973875;28;20497;-74
2022/09/01 02:13:30;;;;;;;7.47;4.05;;;;;;;13.38;100.00;96963.06;4974598;28;20094;-74
2022/09/01 02:16:00;;;;;;;8.40;4.05;;;;;;;13.40;100.00;96964.69;4973916;28;20324;-75
2022/09/01 02:18:30;;;;;;;6.28;3.67;;;;;;;13.38;100.00;96959.53;4972128;28;20046;-74
2022/09/01 02:21:00;;;;;;;7.57;3.40;;;;;;;13.35;100.00;96952.00;4972270;28;20305;-74
2022/09/01 02:23:26;;;;;;;7.07;3.53;;;;;;;13.38;100.00;96956.84;4973226;28;20456;-74
2022/09/01 02:25:55;;;;;;;6.50;3.40;;;;;;;13.37;100.00;96955.22;4974742;28;20042;-75
2022/09/01 02:28:22;;;;;;;8.35;3.40;;;;;;;13.30;100.00;96957.31;4973044;28;20042;-73
2022/09/01 02:30:50;;;;;;;7.97;3.10;;;;;;;13.34;100.00;96958.44;4971881;28;20460;-74
2022/09/01 02:33:18;;;;;;;11.73;3.50;;;;;;;13.32;100.00;96955.19;4971891;28;20034;-74
2022/09/01 02:36:06;;;;;;;20.70;3.90;;;;;;;13.35;100.00;96952.00;4989024;28;20039;-74
2022/09/01 02:38:32;;;;;;;6.38;3.10;;;;;;;13.35;100.00;96954.69;4972341;28;20113;-75
2022/09/01 02:41:01;;;;;;;11.48;3.35;;;;;;;13.31;100.00;96946.34;4973762;28;20046;-74
2022/09/01 02:43:28;;;;;;;7.10;3.33;;;;;;;13.32;100.00;96947.13;4971094;28;20042;-75
2022/09/01 02:45:58;;;;;;;7.68;3.00;;;;;;;13.29;100.00;96950.31;4975399;28;20384;-73
2022/09/01 02:48:39;;;;;;;8.32;3.28;;;;;;;13.28;100.00;96946.00;4986782;28;20452;-74
2022/09/01 02:51:14;;;;;;;8.37;3.30;;;;;;;13.31;100.00;96945.53;4955832;28;20038;-73
2022/09/01 02:53:41;;;;;;;7.88;3.35;;;;;;;13.28;100.00;96937.94;4989140;28;20236;-74
2022/09/01 02:56:13;;;;;;;10.38;3.35;;;;;;;13.24;100.00;96944.91;4969629;28;20045;-73
2022/09/01 02:58:45;;;;;;;17.00;8.93;;;;;;;13.18;100.00;96938.63;4973404;28;20053;-73
2022/09/01 03:01:19;;;;;;;9.60;3.22;;;;;;;13.23;100.00;96937.88;4987627;28;20393;-74
2022/09/01 03:03:45;;;;;;;8.60;3.65;;;;;;;13.21;100.00;96931.97;4957805;28;20053;-73
2022/09/01 03:06:11;;;;;;;6.57;3.10;;;;;;;13.18;100.00;96937.81;4988230;28;20058;-74
2022/09/01 03:08:38;;;;;;;9.30;2.90;;;;;;;13.16;100.00;96940.78;4988633;28;20077;-74
2022/09/01 03:11:10;;;;;;;10.15;2.95;;;;;;;13.17;100.00;96937.00;4972265;28;20113;-73
2022/09/01 03:13:39;;;;;;;8.50;3.20;;;;;;;13.21;100.00;96934.66;4988630;28;20049;-74
2022/09/01 03:16:06;;;;;;;8.02;3.20;;;;;;;13.22;100.00;96930.91;4989231;28;20065;-74
2022/09/01 03:18:34;;;;;;;9.23;3.30;;;;;;;13.21;100.00;96934.66;4989253;28;20279;-74
2022/09/01 03:21:01;;;;;;;7.97;3.13;;;;;;;13.21;100.00;96937.34;4972414;28;20040;-74
2022/09/01 03:23:30;;;;;;;8.15;3.35;;;;;;;13.22;100.00;96939.75;4958662;28;20161;-74
2022/09/01 03:25:57;;;;;;;8.32;3.40;;;;;;;13.21;100.00;96929.28;4973863;28;20034;-75
2022/09/01 03:28:22;;;;;;;10.57;3.28;;;;;;;13.17;100.00;96934.31;4971122;28;20096;-75
2022/09/01 03:30:50;;;;;;;9.38;2.90;;;;;;;13.13;100.00;96925.13;4973787;28;20042;-74
2022/09/01 03:33:18;;;;;;;9.50;3.38;;;;;;;13.11;100.00;96930.75;4988184;28;20387;-74
2022/09/01 03:35:45;;;;;;;7.25;3.42;;;;;;;13.08;100.00;96931.28;4972748;28;20394;-75
2022/09/01 03:38:12;;;;;;;6.07;3.10;;;;;;;13.05;100.00;96931.78;4955429;28;20393;-74
2022/09/01 03:40:39;;;;;;;10.10;3.50;;;;;;;12.98;100.00;96928.47;4989308;28;20022;-74
2022/09/01 03:43:12;;;;;;;12.15;3.70;;;;;;;12.93;100.00;96933.81;4972622;28;20437;-75
2022/09/01 03:45:40;;;;;;;6.57;3.80;;;;;;;12.82;100.00;96932.84;4976934;28;20410;-74
2022/09/01 03:48:10;;;;;;;8.75;3.38;;;;;;;12.69;100.00;96932.44;4991319;28;20042;-75
2022/09/01 03:50:44;;;;;;;6.43;3.38;;;;;;;12.70;100.00;96934.06;4976051;28;20298;-74
2022/09/01 03:53:11;;;;;;;11.65;3.50;;;;;;;12.66;100.00;96931.06;4976289;28;20034;-74
2022/09/01 03:55:38;;;;;;;10.15;3.22;;;;;;;12.65;100.00;96929.44;4974591;28;20033;-75
2022/09/01 03:58:07;;;;;;;9.27;3.40;;;;;;;12.64;100.00;96929.69;4993052;28;20041;-75
2022/09/01 04:00:36;;;;;;;8.43;3.40;;;;;;;12.58;100.00;96926.13;4959370;28;20403;-75
2022/09/01 04:03:06;;;;;;;12.95;3.58;;;;;;;12.54;100.00;96923.13;4991600;28;20494;-74
2022/09/01 04:05:33;;;;;;;6.15;3.15;;;;;;;12.54;100.00;96925.00;4992737;28;20034;-75
2022/09/01 04:08:04;;;;;;;6.00;3.00;;;;;;;12.55;100.00;96927.44;4992322;28;20097;-75
2022/09/01 04:10:33;;;;;;;6.03;3.00;;;;;;;12.58;100.00;96930.69;4978012;28;20076;-75
2022/09/01 04:13:00;;;;;;;7.07;3.20;;;;;;;12.55;100.00;96927.44;4974854;28;20044;-74
2022/09/01 04:15:27;;;;;;;8.77;2.97;;;;;;;12.55;100.00;96926.63;4973240;28;20263;-74
2022/09/01 04:18:09;;;;;;;5.40;3.00;;;;;;;12.48;100.00;96932.19;4976156;28;20416;-74
2022/09/01 04:20:49;;;;;;;5.75;3.22;;;;;;;12.44;100.00;96930.22;4974982;28;20042;-74
2022/09/01 04:23:39;;;;;;;6.05;3.50;;;;;;;12.41;100.00;96918.13;4990467;28;20034;-74
2022/09/01 04:26:13;;;;;;;5.63;3.78;;;;;;;12.33;100.00;96931.97;4976909;28;20042;-76
2022/09/01 04:28:44;;;;;;;10.30;3.20;;;;;;;12.31;100.00;96923.38;4958330;28;20121;-75
2022/09/01 04:31:17;;;;;;;5.68;3.03;;;;;;;12.32;100.00;96925.00;4968640;28;20149;-75
2022/09/01 04:33:45;;;;;;;6.55;3.42;;;;;;;12.38;100.00;96928.56;4971932;28;20043;-76
2022/09/01 04:36:26;;;;;;;8.10;3.30;;;;;;;12.46;100.00;96928.13;4970951;28;20524;-76
2022/09/01 04:39:07;;;;;;;8.50;3.30;;;;;;;12.49;100.00;96928.44;4958293;28;20133;-75
2022/09/01 04:41:36;;;;;;;6.30;2.83;;;;;;;12.49;100.00;96923.06;4955753;28;20046;-76
2022/09/01 04:44:05;;;;;;;7.43;3.27;;;;;;;12.46;100.00;96926.25;4955182;28;20042;-76
2022/09/01 04:46:36;;;;;;;;;;;;;;;12.46;100.00;96928.94;4971609;28;20480;-76
2022/09/01 04:49:08;;;;;;;7.45;3.50;;;;;;;12.45;100.00;96932.69;4955737;28;20444;-76
2022/09/01 04:51:39;;;;;;;5.65;2.80;;;;;;;12.35;100.00;96932.53;4971481;28;20116;-76
2022/09/01 04:54:08;;;;;;;5.20;2.65;;;;;;;12.37;100.00;96934.97;4972253;28;20038;-75
2022/09/01 04:56:34;;;;;;;9.38;3.28;;;;;;;12.36;100.00;96930.66;4970814;28;20230;-75
2022/09/01 04:59:13;;;;;;;8.35;3.05;;;;;;;12.36;100.00;96934.16;4970463;28;20043;-75
2022/09/01 05:01:44;;;;;;;9.32;3.05;;;;;;;12.36;100.00;96928.78;4954714;28;20061;-74
2022/09/01 05:04:20;;;;;;;6.35;2.47;;;;;;;12.42;100.00;96933.16;4972729;28;20039;-74
2022/09/01 05:06:48;;;;;;;7.28;2.50;;;;;;;12.42;100.00;96927.81;4970647;28;20376;-74
2022/09/01 05:09:17;;;;;;;5.72;2.40;;;;;;;12.49;100.00;96931.13;4970619;28;20426;-75
2022/09/01 05:12:09;;;;;;;7.80;2.28;;;;;;;12.40;100.00;96927.25;4969855;28;20389;-75
2022/09/01 05:14:41;;;;;;;5.57;2.58;;;;;;;12.43;100.00;96933.97;4972340;28;20074;-75
2022/09/01 05:17:09;;;;;;;5.22;2.20;;;;;;;12.46;100.00;96928.94;4969801;28;20030;-75
2022/09/01 05:19:37;;;;;;;5.72;2.30;;;;;;;12.49;100.00;96933.81;4972194;28;20121;-75
2022/09/01 05:22:03;;;;;;;6.68;2.50;;;;;;;12.48;100.00;96934.88;4969319;28;20298;-75
2022/09/01 05:24:33;;;;;;;5.22;2.55;;;;;;;12.52;100.00;96938.66;4956621;28;20050;-76
2022/09/01 05:27:06;;;;;;;7.80;2.20;;;;;;;12.54;100.00;96936.56;4969585;28;20150;-76
2022/09/01 05:29:37;;;;;;;4.32;2.20;;;;;;;12.54;100.00;96928.50;4940247;28;20485;-76
2022/09/01 05:32:08;;;;;;;6.40;2.13;;;;;;;12.56;100.00;96941.69;4983620;28;20126;-76
2022/09/01 05:34:37;;;;;;;4.65;2.30;;;;;;;12.60;100.00;96934.72;4974852;28;20557;-76
2022/09/01 05:37:05;;;;;;;12.65;2.05;;;;;;;12.66;100.00;96938.31;4967556;28;20114;-76
2022/09/01 05:39:31;;;;;;;5.60;2.03;;;;;;;12.78;100.00;96947.88;4975905;28;20034;-76
2022/09/01 05:41:58;;;;;;;6.43;2.17;;;;;;;12.83;100.00;96949.78;4973886;28;20220;-76
2022/09/01 05:44:24;;;;;;;6.90;2.00;;;;;;;12.90;100.00;96944.22;4972996;28;20557;-76
2022/09/01 05:46:52;;;;;;;5.82;2.05;;;;;;;13.00;100.00;96938.97;4972806;28;20630;-76
2022/09/01 05:49:18;;;;;;;7.40;2.20;;;;;;;13.01;100.00;96938.72;4990292;28;20042;-76
2022/09/01 05:51:50;;;;;;;5.90;1.90;;;;;;;13.06;100.00;96944.13;4972527;28;20038;-76
2022/09/01 05:54:21;;;;;;;6.87;2.13;;;;;;;13.08;100.00;96936.66;4989631;28;20031;-76
2022/09/01 05:56:48;;;;;;;4.53;2.30;;;;;;;13.11;100.00;96944.19;4971091;28;20336;-77
2022/09/01 05:59:19;;;;;;;4.25;2.10;;;;;;;13.22;100.00;96947.81;4972355;28;20046;-76
2022/09/01 06:01:46;;;;;;;6.97;2.25;;;;;;;13.34;100.00;96945.81;4969643;28;20050;-76
2022/09/01 06:04:13;;;;;;;6.57;2.20;;;;;;;13.48;100.00;96945.41;4955189;28;20050;-77
2022/09/01 06:06:45;;;;;;;5.88;2.20;;;;;;;13.66;100.00;96947.72;4969407;28;20051;-76
2022/09/01 06:09:19;;;;;;;8.80;2.13;;;;;;;13.85;100.00;96948.13;4953633;28;20086;-76
2022/09/01 06:11:45;;;;;;;8.80;2.10;;;;;;;13.97;100.00;96946.06;4952953;28;20053;-76
2022/09/01 06:14:15;;;;;;;4.43;2.22;;;;;;;14.11;100.00;96936.50;4970751;28;20046;-77
2022/09/01 06:16:44;;;;;;;6.10;1.70;;;;;;;14.25;100.00;96938.75;4953298;28;20346;-77
2022/09/01 06:19:11;;;;;;;7.47;1.73;;;;;;;14.39;100.00;96940.69;4955398;28;20093;-77
2022/09/01 06:21:41;;;;;;;11.70;2.10;;;;;;;14.53;100.00;96934.88;4968813;28;20039;-77
2022/09/01 06:24:06;;;;;;;7.07;1.90;;;;;;;14.57;100.00;96942.19;4971332;28;20386;-77
2022/09/01 06:26:35;;;;;;;8.10;1.80;;;;;;;14.53;100.00;96933.00;4954839;28;20130;-77
2022/09/01 06:29:04;;;;;;;8.27;2.20;;;;;;;14.57;100.00;96942.19;4970994;28;20045;-77
2022/09/01 06:31:33;;;;;;;4.05;1.83;;;;;;;14.66;100.00;96939.78;4966730;28;20098;-77
2022/09/01 06:34:07;;;;;;;4.43;2.17;;;;;;;14.81;100.00;96941.75;4970107;28;20042;-77
2022/09/01 06:36:39;;;;;;;6.28;2.20;;;;;;;14.96;100.00;96955.28;4969666;28;20058;-77
2022/09/01 06:39:07;;;;;;;6.63;1.80;;;;;;;15.14;100.00;96951.28;4954182;28;20458;-77
2022/09/01 06:41:33;;;;;;;7.72;1.95;;;;;;;15.28;100.00;96949.69;4953690;28;20577;-76
2022/09/01 06:44:04;;;;;;;;;;;;;;;15.47;100.00;96956.19;4971401;28;20540;-76
2022/09/01 06:46:30;;;;;;;3.28;1.70;;;;;;;15.51;100.00;96946.50;4971151;28;20132;-77
2022/09/01 06:49:00;;;;;;;7.32;2.10;;;;;;;15.67;100.00;96954.66;4969272;28;20055;-76
2022/09/01 06:51:30;;;;;;;5.53;1.40;;;;;;;16.03;100.00;96958.13;4967998;28;20448;-76
2022/09/01 06:53:58;;;;;;;6.25;1.80;;;;;;;16.09;100.00;96952.47;4955444;28;20034;-76
2022/09/01 06:56:32;;;;;;;3.63;1.70;;;;;;;15.99;100.00;96959.78;4969890;28;20465;-76
2022/09/01 06:59:04;;;;;;;4.82;2.20;;;;;;;16.04;100.00;96959.78;4939145;28;20121;-76
2022/09/01 07:01:32;;;;;;;4.55;1.90;;;;;;;16.12;100.00;96967.34;4967662;28;20294;-76
2022/09/01 07:03:58;;;;;;;10.32;1.95;;;;;;;16.19;100.00;96967.88;4954188;28;20043;-76
2022/09/01 07:06:34;;;;;;;5.43;1.58;;;;;;;16.28;100.00;96966.22;4969427;28;20133;-77
2022/09/01 07:09:28;;;;;;;7.65;1.98;;;;;;;16.49;100.00;96958.06;4967984;28;20298;-76
2022/09/01 07:12:13;;;;;;;8.07;2.03;;;;;;;16.51;100.00;96966.75;4969400;28;20045;-76
2022/09/01 07:14:39;;;;;;;7.75;2.15;;;;;;;16.54;100.00;96958.06;4971497;28;20407;-76
2022/09/01 07:17:06;;;;;;;4.10;2.08;;;;;;;16.65;100.00;96959.66;4954382;28;20118;-77
2022/09/01 07:19:34;;;;;;;7.55;1.98;;;;;;;16.69;100.00;96966.97;4937264;28;20465;-77
2022/09/01 07:22:01;;;;;;;6.75;2.10;;;;;;;16.65;100.00;96965.91;4940961;28;20129;-76
2022/09/01 07:24:29;;;;;;;6.75;2.10;;;;;;;16.58;100.00;96964.56;4974570;28;20058;-76
2022/09/01 07:27:14;;;;;;;9.60;2.80;;;;;;;16.47;100.00;96957.56;4957872;28;20042;-76
2022/09/01 07:29:39;;;;;;;7.38;2.25;;;;;;;16.74;100.00;96968.06;4974572;28;20506;-76
2022/09/01 07:32:06;;;;;;;5.30;2.13;;;;;;;16.80;100.00;96959.63;4956793;28;20405;-76
2022/09/01 07:34:34;;;;;;;6.03;2.25;;;;;;;16.90;100.00;96956.09;4956270;28;20072;-76
2022/09/01 07:37:02;;;;;;;7.10;2.17;;;;;;;16.94;100.00;96952.56;4956787;28;20089;-76
2022/09/01 07:39:28;;;;;;;8.00;1.90;;;;;;;16.88;100.00;96956.34;4956240;28;20038;-76
2022/09/01 07:42:16;;;;;;;4.07;1.85;;;;;;;16.92;100.00;96954.72;4945774;28;20047;-76
2022/09/01 07:45:10;;;;;;;5.15;2.20;;;;;;;16.87;100.00;96960.16;4960127;28;20538;-77
2022/09/01 07:47:45;;;;;;;8.25;3.17;;;;;;;16.84;100.00;96960.72;4957028;28;20947;-76
2022/09/01 07:50:14;;;;;;;4.32;1.90;;;;;;;16.78;100.00;96964.50;4974103;28;20051;-76
2022/09/01 07:52:41;;;;;;;4.00;1.73;;;;;;;16.80;100.00;96964.22;4958244;28;20071;-76
2022/09/01 07:55:11;;;;;;;6.57;2.13;;;;;;;16.94;100.00;96962.56;4973811;28;20129;-76
2022/09/01 07:57:39;;;;;;;7.30;2.17;;;;;;;17.09;100.00;96970.59;4958396;28;20485;-76
2022/09/01 08:00:05;;;;;;;5.13;2.42;;;;;;;17.02;100.00;96972.00;4958036;28;20138;-77
2022/09/01 08:02:43;;;;;;;6.57;2.28;;;;;;;17.03;100.00;96969.00;4972981;28;20387;-77
2022/09/01 08:05:21;;;;;;;5.50;2.40;;;;;;;16.86;100.00;96973.94;4975650;28;20034;-77
2022/09/01 08:07:48;;;;;;;6.88;2.20;;;;;;;17.02;100.00;96970.09;4991785;28;20114;-77
2022/09/01 08:10:14;;;;;;;5.47;2.10;;;;;;;17.27;100.00;96982.69;4974365;28;20054;-77
2022/09/01 08:12:41;;;;;;;8.32;2.40;;;;;;;17.46;100.00;96974.75;4974702;28;20042;-77
2022/09/01 08:15:10;;;;;;;4.53;2.20;;;;;;;17.38;100.00;96978.84;4974779;28;20461;-77
2022/09/01 08:17:37;;;;;;;15.88;3.30;;;;;;;17.51;100.00;96974.72;4974183;28;20132;-77
2022/09/01 08:20:08;;;;;;;5.82;2.45;;;;;;;17.43;100.00;96973.41;4975188;28;20034;-77
2022/09/01 08:22:52;;;;;;;6.45;2.65;;;;;;;17.61;100.00;96971.94;4976720;28;20068;-77
2022/09/01 08:25:46;;;;;;;7.63;2.90;;;;;;;17.78;100.00;96977.81;4977583;28;20050;-77
2022/09/01 08:28:13;;;;;;;37.40;4.80;;;;;;;17.88;100.00;96970.69;4975619;28;20042;-77
2022/09/01 08:30:41;;;;;;;44.65;5.25;;;;;;;18.05;100.00;96971.94;4991685;28;20092;-77
2022/09/01 08:33:10;;;;;;;7.00;3.60;;;;;;;18.28;100.00;96973.06;4975894;28;20541;-77
2022/09/01 08:35:41;;;;;;;5.30;2.67;;;;;;;18.44;100.00;96975.63;4991676;28;20053;-77
2022/09/01 08:38:07;;;;;;;7.93;3.45;;;;;;;18.52;100.00;96973.13;4974867;28;20129;-77
2022/09/01 08:40:34;;;;;;;8.52;3.05;;;;;;;18.55;100.00;96974.44;4992397;28;20699;-77
2022/09/01 08:43:38;;;;;;;7.80;3.40;;;;;;;18.66;100.00;96965.13;4977065;28;20045;-77
2022/09/01 08:46:29;;;;;;;10.32;3.50;;;;;;;18.34;100.00;96974.63;4974461;28;20084;-77
2022/09/01 08:48:59;;;;;;;5.13;3.17;;;;;;;18.15;100.00;96976.44;4960810;28;20650;-77
2022/09/01 08:51:35;;;;;;;8.27;3.45;;;;;;;18.24;100.00;96982.06;4972853;28;20042;-76
2022/09/01 08:54:09;;;;;;;9.88;3.00;;;;;;;18.30;100.00;96975.50;4977501;28;20512;-77
2022/09/01 08:56:36;;;;;;;11.40;3.50;;;;;;;18.21;100.00;96978.03;4973296;28;20042;-76
2022/09/01 08:59:05;;;;;;;6.88;3.20;;;;;;;18.24;100.00;96984.75;4992747;28;20398;-76
2022/09/01 09:02:31;;;;;;;6.68;3.50;;;;;;;18.48;100.00;96977.47;4975802;28;20493;-77
2022/09/01 09:05:26;;;;;;;10.65;3.22;;;;;;;18.47;100.00;96983.19;4975050;28;20042;-76
2022/09/01 09:08:18;;;;;;;7.25;2.95;;;;;;;18.80;100.00;96976.09;4977193;28;20501;-77
2022/09/01 09:11:03;;;;;;;;;;;;;;;18.91;100.00;96972.19;4976229;28;20281;-77
2022/09/01 09:13:35;;;;;;;5.38;3.20;;;;;;;19.27;98.11;96980.66;4974903;28;19924;-77
2022/09/01 09:16:05;;;;;;;7.13;2.72;;;;;;;19.65;94.59;96973.38;4975913;28;20477;-77
2022/09/01 09:18:48;;;;;;;7.80;3.10;;;;;;;19.84;94.02;96977.97;4973787;28;20166;-77
2022/09/01 09:21:35;;;;;;;10.82;3.58;;;;;;;20.09;92.29;96979.50;4973855;28;20034;-77
2022/09/01 09:24:51;;;;;;;5.70;3.47;;;;;;;20.14;92.91;96972.06;4976652;28;20054;-77
2022/09/01 09:27:26;;;;;;;7.60;3.15;;;;;;;20.12;93.13;96971.56;4975667;28;20038;-77
2022/09/01 09:29:56;;;;;;;6.72;3.05;;;;;;;19.94;93.66;96972.41;4973272;28;20043;-76
2022/09/01 09:32:40;;;;;;;6.55;3.40;;;;;;;19.43;95.40;96975.84;4973555;28;20042;-77
2022/09/01 09:35:24;;;;;;;6.43;3.03;;;;;;;19.38;95.51;96967.78;4976521;28;20042;-77
2022/09/01 09:37:49;;;;;;;7.78;3.40;;;;;;;19.37;96.16;96966.16;4977544;28;20053;-76
2022/09/01 09:40:21;;;;;;;6.93;3.40;;;;;;;19.28;97.74;96968.72;4975313;28;20038;-77
2022/09/01 09:42:53;;;;;;;6.75;3.08;;;;;;;19.89;95.35;96957.00;4975672;28;20038;-77
2022/09/01 09:45:26;;;;;;;10.75;3.10;;;;;;;19.93;95.10;96957.22;4975793;28;20129;-77
2022/09/01 09:47:55;;;;;;;5.10;3.15;;;;;;;19.99;96.13;96956.81;4977047;28;20334;-77
2022/09/01 09:50:45;;;;;;;5.93;3.22;;;;;;;20.57;93.74;96950.97;4990081;28;20049;-77
2022/09/01 09:53:26;;;;;;;11.20;3.40;;;;;;;20.73;92.03;96951.47;4974568;28;20038;-77
2022/09/01 09:56:15;;;;;;;8.55;3.40;;;;;;;20.35;91.22;96950.78;4972909;28;20414;-77
2022/09/01 09:58:43;;;;;;;12.60;3.30;;;;;;;20.61;91.86;96953.88;4990080;28;20061;-77
2022/09/01 10:01:21;;;;;;;9.88;3.65;;;;;;;20.37;92.11;96943.13;4975333;28;20048;-77
2022/09/01 10:03:56;;;;;;;9.10;3.40;;;;;;;20.96;89.56;96943.41;4975175;28;20138;-77
2022/09/01 10:06:34;;;;;;;8.10;3.50;;;;;;;21.35;88.72;96940.97;4974308;28;20042;-77
2022/09/01 10:09:03;;;;;;;6.35;3.53;;;;;;;21.34;86.99;96949.44;4976301;28;20120;-77
2022/09/01 10:11:36;;;;;;;8.48;3.80;;;;;;;21.07;88.82;96928.47;4974177;28;20409;-77
2022/09/01 10:14:05;;;;;;;8.15;2.92;;;;;;;21.45;86.60;96934.50;4976621;28;20031;-77
2022/09/01 10:16:33;;;;;;;9.18;3.20;;;;;;;21.40;86.78;96940.06;4989144;28;20038;-77
2022/09/01 10:19:00;;;;;;;5.22;3.28;;;;;;;21.69;84.69;96929.56;4973298;28;20035;-77
2022/09/01 10:21:32;;;;;;;8.00;3.55;;;;;;;21.98;83.30;96923.69;4940415;28;20477;-77
2022/09/01 10:23:59;;;;;;;11.15;3.80;;;;;;;21.58;84.11;96933.66;4973432;28;20047;-77
2022/09/01 10:26:32;;;;;;;10.80;2.80;;;;;;;21.61;84.18;96922.13;4973614;28;20073;-77
2022/09/01 10:29:05;;;;;;;5.67;3.00;;;;;;;22.29;82.31;96924.88;4629821;28;10000732;-77
2022/09/01 10:31:31;;;;;;;6.22;3.28;;;;;;;22.83;79.84;96920.94;4627501;28;10000045;-77
2022/09/01 10:34:00;;;;;;;8.45;3.28;;;;;;;23.43;73.51;96924.97;4970969;28;20379;-77
2022/09/01 10:36:26;;;;;;;6.35;3.17;;;;;;;22.73;75.20;96929.41;4971764;28;20065;-77
2022/09/01 10:38:51;;;;;;;7.15;3.10;;;;;;;22.86;75.29;96925.78;4972000;28;20205;-77
2022/09/01 10:41:42;;;;;;;4.93;3.00;;;;;;;23.26;75.64;96931.19;4970323;28;20042;-77
2022/09/01 10:44:10;;;;;;;7.47;3.00;;;;;;;24.14;66.04;96928.16;4970817;28;20133;-77
2022/09/01 10:46:35;;;;;;;11.05;3.00;;;;;;;24.91;64.62;96923.59;4971280;28;20485;-77
2022/09/01 10:49:01;;;;;;;8.00;2.92;;;;;;;26.28;54.14;96920.97;4972480;28;20120;-77
2022/09/01 10:51:26;;;;;;;6.13;3.08;;;;;;;28.59;45.01;96908.03;4971182;28;20060;-77
2022/09/01 10:53:57;;;;;;;4.97;2.70;;;;;;;29.33;39.41;96910.97;4972550;28;20540;-77
2022/09/01 10:56:38;;;;;;;4.85;2.53;;;;;;;29.25;36.69;96913.94;4968331;28;20049;-78
2022/09/01 10:59:05;;;;;;;5.57;3.08;;;;;;;29.03;37.04;96912.66;4971446;28;20068;-79
2022/09/01 11:02:07;;;;;;;7.35;3.33;;;;;;;29.53;36.31;96900.81;4972919;28;20058;-78
2022/09/01 11:04:35;;;;;;;5.40;2.90;;;;;;;30.50;35.64;96907.09;4969954;28;20046;-77
2022/09/01 11:07:25;;;;;;;7.88;3.03;;;;;;;29.79;33.91;96904.91;4986518;28;20772;-77
2022/09/01 11:10:19;;;;;;;5.10;3.00;;;;;;;32.38;31.64;96896.41;4972397;28;20748;-78
2022/09/01 11:13:00;;;;;;;5.72;2.90;;;;;;;35.01;27.55;96896.19;4971193;28;20046;-77
2022/09/01 11:15:41;;;;;;;10.05;3.30;;;;;;;35.06;27.02;96895.81;4973401;28;20040;-77
2022/09/01 11:18:16;;;;;;;9.77;2.92;;;;;;;31.89;29.33;96898.19;4971832;28;20050;-78
2022/09/01 11:20:44;;;;;;;5.60;2.60;;;;;;;32.06;31.22;96898.78;4974122;28;20142;-78
2022/09/01 11:23:25;;;;;;;6.03;2.90;;;;;;;33.45;28.59;96886.19;4972069;28;20288;-78
2022/09/01 11:25:53;;;;;;;4.50;2.85;;;;;;;35.47;25.55;96896.16;4974699;28;20043;-78
2022/09/01 11:28:30;;;;;;;12.48;7.63;;;;;;;37.12;23.04;96885.72;4955950;28;20038;-78
2022/09/01 11:31:00;;;;;;;9.02;2.58;;;;;;;34.73;23.91;96902.53;4974629;28;20073;-78
2022/09/01 11:33:30;;;;;;;8.23;2.80;;;;;;;35.13;24.70;96893.03;4973504;28;21519;-77
2022/09/01 11:36:04;;;;;;;5.32;2.60;;;;;;;33.36;26.23;96889.28;4975646;28;20042;-78
2022/09/01 11:38:53;;;;;;;6.05;2.35;;;;;;;35.02;24.17;96881.09;4973982;28;20030;-78
2022/09/01 11:41:43;;;;;;;9.93;2.65;;;;;;;33.47;25.19;96883.84;4973938;28;20271;-78
2022/09/01 11:44:25;;;;;;;6.93;2.42;;;;;;;34.75;24.76;96889.81;4969470;28;20912;-78
2022/09/01 11:46:54;;;;;;;6.38;2.38;;;;;;;35.39;23.21;96887.00;4989671;28;20042;-78
2022/09/01 11:49:26;;;;;;;8.05;2.47;;;;;;;37.94;20.99;96881.31;4971313;28;20073;-78
2022/09/01 11:51:51;;;;;;;7.32;2.70;;;;;;;37.77;20.67;96880.28;4974450;28;20050;-78